sensor_id;sensor_type;location;lat;lon;timestamp;P1;durP1;ratioP1;P2;durP2;ratioP2
5040;SDS011;2539;52.568;13.364;2022-12-07T00:01:09;9.77;;;7.07;;
5040;SDS011;2539;52.568;13.364;2022-12-07T00:03:41;11.17;;;7.30;;
5040;SDS011;2539;52.568;13.364;2022-12-07T00:06:10;13.80;;;7.80;;
5040;SDS011;2539;52.568;13.364;2022-12-07T00:08:38;12.13;;;9.10;;
5040;SDS011;2539;52.568;13.364;2022-12-07T00:11:05;13.70;;;9.50;;
5040;SDS011;2539;52.568;13.364;2022-12-07T00:13:33;11.43;;;7.60;;
5040;SDS011;2539;52.568;13.364;2022-12-07T00:16:01;13.67;;;8.83;;
5040;SDS011;2539;52.568;13.364;2022-12-07T00:18:28;10.07;;;7.80;;
5040;SDS011;2539;52.568;13.364;2022-12-07T00:20:59;12.40;;;9.10;;
5040;SDS011;2539;52.568;13.364;2022-12-07T00:23:26;12.30;;;8.53;;
5040;SDS011;2539;52.568;13.364;2022-12-07T00:25:53;11.97;;;9.37;;
5040;SDS011;2539;52.568;13.364;2022-12-07T00:28:19;14.80;;;9.50;;
5040;SDS011;2539;52.568;13.364;2022-12-07T00:30:45;13.73;;;9.53;;
5040;SDS011;2539;52.568;13.364;2022-12-07T00:33:12;11.20;;;8.53;;
5040;SDS011;2539;52.568;13.364;2022-12-07T00:35:38;14.17;;;8.77;;
5040;SDS011;2539;52.568;13.364;2022-12-07T00:38:04;10.70;;;8.20;;
5040;SDS011;2539;52.568;13.364;2022-12-07T00:40:30;11.47;;;9.27;;
5040;SDS011;2539;52.568;13.364;2022-12-07T00:42:57;11.33;;;8.57;;
5040;SDS011;2539;52.568;13.364;2022-12-07T00:45:23;10.57;;;8.50;;
5040;SDS011;2539;52.568;13.364;2022-12-07T00:47:50;9.63;;;7.83;;
5040;SDS011;2539;52.568;13.364;2022-12-07T00:50:16;12.37;;;9.50;;
5040;SDS011;2539;52.568;13.364;2022-12-07T00:52:42;12.13;;;8.70;;
5040;SDS011;2539;52.568;13.364;2022-12-07T00:55:09;12.97;;;8.97;;
5040;SDS011;2539;52.568;13.364;2022-12-07T00:57:35;13.93;;;10.30;;
5040;SDS011;2539;52.568;13.364;2022-12-07T01:00:02;12.23;;;9.20;;
5040;SDS011;2539;52.568;13.364;2022-12-07T01:02:29;12.00;;;9.30;;
5040;SDS011;2539;52.568;13.364;2022-12-07T01:04:54;9.63;;;8.40;;
5040;SDS011;2539;52.568;13.364;2022-12-07T01:07:23;10.73;;;8.73;;
5040;SDS011;2539;52.568;13.364;2022-12-07T01:09:49;10.87;;;8.43;;
5040;SDS011;2539;52.568;13.364;2022-12-07T01:12:14;13.37;;;9.83;;
5040;SDS011;2539;52.568;13.364;2022-12-07T01:14:41;11.30;;;9.27;;
5040;SDS011;2539;52.568;13.364;2022-12-07T01:17:07;11.07;;;9.00;;
5040;SDS011;2539;52.568;13.364;2022-12-07T01:19:33;11.93;;;8.60;;
5040;SDS011;2539;52.568;13.364;2022-12-07T01:22:00;11.93;;;9.00;;
5040;SDS011;2539;52.568;13.364;2022-12-07T01:24:26;11.43;;;9.00;;
5040;SDS011;2539;52.568;13.364;2022-12-07T01:26:52;9.50;;;8.27;;
5040;SDS011;2539;52.568;13.364;2022-12-07T01:29:19;10.43;;;7.67;;
5040;SDS011;2539;52.568;13.364;2022-12-07T01:31:47;10.30;;;8.60;;
5040;SDS011;2539;52.568;13.364;2022-12-07T01:34:14;10.53;;;8.13;;
5040;SDS011;2539;52.568;13.364;2022-12-07T01:36:40;11.20;;;8.83;;
5040;SDS011;2539;52.568;13.364;2022-12-07T01:39:09;9.80;;;8.03;;
5040;SDS011;2539;52.568;13.364;2022-12-07T01:41:36;9.63;;;8.10;;
5040;SDS011;2539;52.568;13.364;2022-12-07T01:46:51;8.47;;;6.93;;
5040;SDS011;2539;52.568;13.364;2022-12-07T01:52:09;12.77;;;7.90;;
5040;SDS011;2539;52.568;13.364;2022-12-07T01:54:41;11.30;;;8.30;;
5040;SDS011;2539;52.568;13.364;2022-12-07T01:57:09;10.57;;;8.40;;
5040;SDS011;2539;52.568;13.364;2022-12-07T01:59:37;7.93;;;7.03;;
5040;SDS011;2539;52.568;13.364;2022-12-07T02:02:05;9.30;;;7.30;;
5040;SDS011;2539;52.568;13.364;2022-12-07T02:04:35;8.30;;;6.50;;
5040;SDS011;2539;52.568;13.364;2022-12-07T02:07:01;8.87;;;7.30;;
5040;SDS011;2539;52.568;13.364;2022-12-07T02:09:28;11.90;;;8.03;;
5040;SDS011;2539;52.568;13.364;2022-12-07T02:11:54;7.57;;;6.60;;
5040;SDS011;2539;52.568;13.364;2022-12-07T02:14:21;7.73;;;6.93;;
5040;SDS011;2539;52.568;13.364;2022-12-07T02:25:13;7.07;;;6.47;;
5040;SDS011;2539;52.568;13.364;2022-12-07T02:28:04;6.30;;;5.40;;
5040;SDS011;2539;52.568;13.364;2022-12-07T02:30:40;6.67;;;5.97;;
5040;SDS011;2539;52.568;13.364;2022-12-07T02:33:13;7.00;;;5.73;;
5040;SDS011;2539;52.568;13.364;2022-12-07T02:38:45;6.50;;;5.90;;
5040;SDS011;2539;52.568;13.364;2022-12-07T02:43:53;8.50;;;6.90;;
5040;SDS011;2539;52.568;13.364;2022-12-07T02:46:25;8.30;;;6.50;;
5040;SDS011;2539;52.568;13.364;2022-12-07T02:48:55;6.93;;;6.23;;
5040;SDS011;2539;52.568;13.364;2022-12-07T02:51:25;7.17;;;6.47;;
5040;SDS011;2539;52.568;13.364;2022-12-07T02:53:55;8.90;;;7.40;;
5040;SDS011;2539;52.568;13.364;2022-12-07T02:56:27;8.27;;;7.03;;
5040;SDS011;2539;52.568;13.364;2022-12-07T02:59:17;9.60;;;7.67;;
5040;SDS011;2539;52.568;13.364;2022-12-07T03:07:51;10.27;;;7.53;;
5040;SDS011;2539;52.568;13.364;2022-12-07T03:13:54;9.00;;;7.83;;
5040;SDS011;2539;52.568;13.364;2022-12-07T03:16:50;11.13;;;8.50;;
5040;SDS011;2539;52.568;13.364;2022-12-07T03:19:25;11.93;;;8.93;;
5040;SDS011;2539;52.568;13.364;2022-12-07T03:21:53;10.63;;;8.87;;
5040;SDS011;2539;52.568;13.364;2022-12-07T03:24:27;11.63;;;8.93;;
5040;SDS011;2539;52.568;13.364;2022-12-07T03:27:03;12.97;;;9.57;;
5040;SDS011;2539;52.568;13.364;2022-12-07T03:29:36;11.40;;;9.30;;
5040;SDS011;2539;52.568;13.364;2022-12-07T03:32:09;13.53;;;9.83;;
5040;SDS011;2539;52.568;13.364;2022-12-07T03:34:58;12.67;;;9.27;;
5040;SDS011;2539;52.568;13.364;2022-12-07T03:37:54;14.57;;;9.37;;
5040;SDS011;2539;52.568;13.364;2022-12-07T03:40:28;13.07;;;9.60;;
5040;SDS011;2539;52.568;13.364;2022-12-07T03:42:59;18.40;;;11.70;;
5040;SDS011;2539;52.568;13.364;2022-12-07T03:45:37;16.50;;;10.63;;
5040;SDS011;2539;52.568;13.364;2022-12-07T03:48:08;15.40;;;11.20;;
5040;SDS011;2539;52.568;13.364;2022-12-07T03:50:49;17.97;;;10.70;;
5040;SDS011;2539;52.568;13.364;2022-12-07T03:53:24;16.67;;;11.70;;
5040;SDS011;2539;52.568;13.364;2022-12-07T03:55:56;16.07;;;10.77;;
5040;SDS011;2539;52.568;13.364;2022-12-07T03:58:23;18.57;;;12.87;;
5040;SDS011;2539;52.568;13.364;2022-12-07T04:00:50;16.20;;;11.50;;
5040;SDS011;2539;52.568;13.364;2022-12-07T04:03:18;18.23;;;11.67;;
5040;SDS011;2539;52.568;13.364;2022-12-07T04:05:44;17.87;;;11.73;;
5040;SDS011;2539;52.568;13.364;2022-12-07T04:08:10;18.30;;;11.83;;
5040;SDS011;2539;52.568;13.364;2022-12-07T04:10:36;17.20;;;12.17;;
5040;SDS011;2539;52.568;13.364;2022-12-07T04:13:03;19.93;;;13.10;;
5040;SDS011;2539;52.568;13.364;2022-12-07T04:15:29;19.87;;;13.40;;
5040;SDS011;2539;52.568;13.364;2022-12-07T04:17:55;18.03;;;13.13;;
5040;SDS011;2539;52.568;13.364;2022-12-07T04:20:22;16.67;;;12.03;;
5040;SDS011;2539;52.568;13.364;2022-12-07T04:22:48;17.67;;;12.97;;
5040;SDS011;2539;52.568;13.364;2022-12-07T04:25:14;18.77;;;12.07;;
5040;SDS011;2539;52.568;13.364;2022-12-07T04:27:41;18.20;;;12.73;;
5040;SDS011;2539;52.568;13.364;2022-12-07T04:30:08;19.77;;;13.63;;
5040;SDS011;2539;52.568;13.364;2022-12-07T04:32:34;20.03;;;13.73;;
5040;SDS011;2539;52.568;13.364;2022-12-07T04:35:00;19.00;;;13.67;;
5040;SDS011;2539;52.568;13.364;2022-12-07T04:37:27;18.77;;;13.00;;
5040;SDS011;2539;52.568;13.364;2022-12-07T04:39:53;18.87;;;13.37;;
5040;SDS011;2539;52.568;13.364;2022-12-07T04:42:19;20.00;;;13.67;;
5040;SDS011;2539;52.568;13.364;2022-12-07T04:44:46;20.60;;;14.77;;
5040;SDS011;2539;52.568;13.364;2022-12-07T04:47:12;19.10;;;12.83;;
5040;SDS011;2539;52.568;13.364;2022-12-07T04:49:38;21.70;;;14.17;;
5040;SDS011;2539;52.568;13.364;2022-12-07T04:52:04;21.70;;;15.00;;
5040;SDS011;2539;52.568;13.364;2022-12-07T04:54:31;20.70;;;14.70;;
5040;SDS011;2539;52.568;13.364;2022-12-07T04:56:57;20.47;;;14.37;;
5040;SDS011;2539;52.568;13.364;2022-12-07T04:59:23;22.60;;;14.73;;
5040;SDS011;2539;52.568;13.364;2022-12-07T05:01:49;22.97;;;15.83;;
5040;SDS011;2539;52.568;13.364;2022-12-07T05:04:16;22.27;;;15.60;;
5040;SDS011;2539;52.568;13.364;2022-12-07T05:06:43;27.30;;;18.07;;
5040;SDS011;2539;52.568;13.364;2022-12-07T05:09:09;23.80;;;16.70;;
5040;SDS011;2539;52.568;13.364;2022-12-07T05:11:36;25.90;;;16.13;;
5040;SDS011;2539;52.568;13.364;2022-12-07T05:14:12;23.67;;;16.90;;
5040;SDS011;2539;52.568;13.364;2022-12-07T05:16:40;23.27;;;15.30;;
5040;SDS011;2539;52.568;13.364;2022-12-07T05:19:07;23.67;;;15.97;;
5040;SDS011;2539;52.568;13.364;2022-12-07T05:21:33;29.67;;;18.20;;
5040;SDS011;2539;52.568;13.364;2022-12-07T05:23:59;24.30;;;16.97;;
5040;SDS011;2539;52.568;13.364;2022-12-07T05:26:26;25.77;;;18.57;;
5040;SDS011;2539;52.568;13.364;2022-12-07T05:28:52;34.57;;;20.57;;
5040;SDS011;2539;52.568;13.364;2022-12-07T05:31:20;28.00;;;17.70;;
5040;SDS011;2539;52.568;13.364;2022-12-07T05:33:47;27.10;;;18.30;;
5040;SDS011;2539;52.568;13.364;2022-12-07T05:36:13;30.50;;;18.70;;
5040;SDS011;2539;52.568;13.364;2022-12-07T05:38:39;30.40;;;18.00;;
5040;SDS011;2539;52.568;13.364;2022-12-07T05:41:07;24.67;;;17.13;;
5040;SDS011;2539;52.568;13.364;2022-12-07T05:43:54;26.70;;;17.40;;
5040;SDS011;2539;52.568;13.364;2022-12-07T05:46:21;28.70;;;18.17;;
5040;SDS011;2539;52.568;13.364;2022-12-07T05:48:47;30.97;;;20.40;;
5040;SDS011;2539;52.568;13.364;2022-12-07T05:51:13;26.57;;;18.23;;
5040;SDS011;2539;52.568;13.364;2022-12-07T05:53:40;26.13;;;17.13;;
5040;SDS011;2539;52.568;13.364;2022-12-07T05:56:05;26.90;;;17.20;;
5040;SDS011;2539;52.568;13.364;2022-12-07T05:58:31;27.27;;;18.50;;
5040;SDS011;2539;52.568;13.364;2022-12-07T06:01:16;34.43;;;18.80;;
5040;SDS011;2539;52.568;13.364;2022-12-07T06:03:42;32.30;;;19.73;;
5040;SDS011;2539;52.568;13.364;2022-12-07T06:06:08;23.10;;;15.87;;
5040;SDS011;2539;52.568;13.364;2022-12-07T06:08:34;27.63;;;17.80;;
5040;SDS011;2539;52.568;13.364;2022-12-07T06:11:00;26.47;;;18.03;;
5040;SDS011;2539;52.568;13.364;2022-12-07T06:13:45;27.13;;;18.20;;
5040;SDS011;2539;52.568;13.364;2022-12-07T06:16:12;31.40;;;18.47;;
5040;SDS011;2539;52.568;13.364;2022-12-07T06:18:38;32.07;;;19.30;;
5040;SDS011;2539;52.568;13.364;2022-12-07T06:21:04;33.43;;;19.07;;
5040;SDS011;2539;52.568;13.364;2022-12-07T06:23:30;33.70;;;19.27;;
5040;SDS011;2539;52.568;13.364;2022-12-07T06:25:57;41.00;;;23.43;;
5040;SDS011;2539;52.568;13.364;2022-12-07T06:28:23;26.63;;;17.03;;
5040;SDS011;2539;52.568;13.364;2022-12-07T06:30:57;37.90;;;19.30;;
5040;SDS011;2539;52.568;13.364;2022-12-07T06:33:27;26.13;;;16.10;;
5040;SDS011;2539;52.568;13.364;2022-12-07T06:35:54;24.10;;;16.47;;
5040;SDS011;2539;52.568;13.364;2022-12-07T06:38:21;28.63;;;16.33;;
5040;SDS011;2539;52.568;13.364;2022-12-07T06:40:47;28.07;;;17.23;;
5040;SDS011;2539;52.568;13.364;2022-12-07T06:43:13;24.10;;;16.60;;
5040;SDS011;2539;52.568;13.364;2022-12-07T06:45:40;30.63;;;18.33;;
5040;SDS011;2539;52.568;13.364;2022-12-07T06:48:06;27.67;;;18.80;;
5040;SDS011;2539;52.568;13.364;2022-12-07T06:50:32;35.17;;;21.10;;
5040;SDS011;2539;52.568;13.364;2022-12-07T06:52:59;26.80;;;17.03;;
5040;SDS011;2539;52.568;13.364;2022-12-07T06:55:25;27.10;;;18.00;;
5040;SDS011;2539;52.568;13.364;2022-12-07T06:57:51;26.23;;;17.30;;
5040;SDS011;2539;52.568;13.364;2022-12-07T07:00:18;27.60;;;16.27;;
5040;SDS011;2539;52.568;13.364;2022-12-07T07:02:44;28.50;;;16.83;;
5040;SDS011;2539;52.568;13.364;2022-12-07T07:05:11;24.57;;;16.77;;
5040;SDS011;2539;52.568;13.364;2022-12-07T07:07:37;29.97;;;17.23;;
5040;SDS011;2539;52.568;13.364;2022-12-07T07:10:02;24.90;;;16.80;;
5040;SDS011;2539;52.568;13.364;2022-12-07T07:12:28;25.60;;;16.57;;
5040;SDS011;2539;52.568;13.364;2022-12-07T07:14:54;28.30;;;17.70;;
5040;SDS011;2539;52.568;13.364;2022-12-07T07:17:20;27.83;;;18.10;;
5040;SDS011;2539;52.568;13.364;2022-12-07T07:19:46;28.90;;;17.57;;
5040;SDS011;2539;52.568;13.364;2022-12-07T07:22:13;26.67;;;16.67;;
5040;SDS011;2539;52.568;13.364;2022-12-07T07:24:39;31.00;;;17.97;;
5040;SDS011;2539;52.568;13.364;2022-12-07T07:27:05;23.63;;;15.67;;
5040;SDS011;2539;52.568;13.364;2022-12-07T07:29:31;25.50;;;16.67;;
5040;SDS011;2539;52.568;13.364;2022-12-07T07:31:58;24.40;;;15.60;;
5040;SDS011;2539;52.568;13.364;2022-12-07T07:34:25;22.57;;;15.10;;
5040;SDS011;2539;52.568;13.364;2022-12-07T07:36:51;25.50;;;15.10;;
5040;SDS011;2539;52.568;13.364;2022-12-07T07:39:18;24.00;;;14.60;;
5040;SDS011;2539;52.568;13.364;2022-12-07T07:41:44;22.07;;;14.23;;
5040;SDS011;2539;52.568;13.364;2022-12-07T07:44:10;21.13;;;13.83;;
5040;SDS011;2539;52.568;13.364;2022-12-07T07:46:36;23.90;;;14.70;;
5040;SDS011;2539;52.568;13.364;2022-12-07T07:49:02;22.73;;;15.00;;
5040;SDS011;2539;52.568;13.364;2022-12-07T07:51:28;21.57;;;13.40;;
5040;SDS011;2539;52.568;13.364;2022-12-07T07:53:54;17.80;;;12.93;;
5040;SDS011;2539;52.568;13.364;2022-12-07T07:56:19;21.30;;;14.10;;
5040;SDS011;2539;52.568;13.364;2022-12-07T07:58:46;17.93;;;10.90;;
5040;SDS011;2539;52.568;13.364;2022-12-07T08:01:12;15.50;;;10.57;;
5040;SDS011;2539;52.568;13.364;2022-12-07T08:03:40;15.50;;;11.03;;
5040;SDS011;2539;52.568;13.364;2022-12-07T08:06:07;20.17;;;12.00;;
5040;SDS011;2539;52.568;13.364;2022-12-07T08:08:34;13.93;;;8.70;;
5040;SDS011;2539;52.568;13.364;2022-12-07T08:11:00;15.80;;;10.00;;
5040;SDS011;2539;52.568;13.364;2022-12-07T08:13:31;11.03;;;8.50;;
5040;SDS011;2539;52.568;13.364;2022-12-07T08:15:57;10.17;;;7.60;;
5040;SDS011;2539;52.568;13.364;2022-12-07T08:18:24;14.00;;;8.80;;
5040;SDS011;2539;52.568;13.364;2022-12-07T08:20:51;11.40;;;8.00;;
5040;SDS011;2539;52.568;13.364;2022-12-07T08:23:17;15.03;;;7.17;;
5040;SDS011;2539;52.568;13.364;2022-12-07T08:25:43;14.90;;;6.70;;
5040;SDS011;2539;52.568;13.364;2022-12-07T08:28:08;11.17;;;6.63;;
5040;SDS011;2539;52.568;13.364;2022-12-07T08:30:34;8.77;;;6.20;;
5040;SDS011;2539;52.568;13.364;2022-12-07T08:33:01;10.20;;;6.23;;
5040;SDS011;2539;52.568;13.364;2022-12-07T08:35:26;7.23;;;5.00;;
5040;SDS011;2539;52.568;13.364;2022-12-07T08:37:52;8.20;;;6.10;;
5040;SDS011;2539;52.568;13.364;2022-12-07T08:40:18;14.40;;;7.07;;
5040;SDS011;2539;52.568;13.364;2022-12-07T08:42:49;6.80;;;5.70;;
5040;SDS011;2539;52.568;13.364;2022-12-07T08:45:17;7.10;;;4.93;;
5040;SDS011;2539;52.568;13.364;2022-12-07T08:47:45;9.50;;;6.40;;
5040;SDS011;2539;52.568;13.364;2022-12-07T08:50:23;9.77;;;5.73;;
5040;SDS011;2539;52.568;13.364;2022-12-07T08:52:50;9.10;;;5.80;;
5040;SDS011;2539;52.568;13.364;2022-12-07T08:55:19;14.60;;;4.80;;
5040;SDS011;2539;52.568;13.364;2022-12-07T08:57:46;9.70;;;4.30;;
5040;SDS011;2539;52.568;13.364;2022-12-07T09:00:12;8.70;;;4.90;;
5040;SDS011;2539;52.568;13.364;2022-12-07T09:02:45;3.73;;;3.40;;
5040;SDS011;2539;52.568;13.364;2022-12-07T09:05:12;15.43;;;4.33;;
5040;SDS011;2539;52.568;13.364;2022-12-07T09:07:40;8.90;;;3.97;;
5040;SDS011;2539;52.568;13.364;2022-12-07T09:10:09;4.73;;;3.00;;
5040;SDS011;2539;52.568;13.364;2022-12-07T09:12:36;8.43;;;3.87;;
5040;SDS011;2539;52.568;13.364;2022-12-07T09:15:02;3.90;;;2.80;;
5040;SDS011;2539;52.568;13.364;2022-12-07T09:17:31;8.30;;;3.03;;
5040;SDS011;2539;52.568;13.364;2022-12-07T09:19:59;7.20;;;3.10;;
5040;SDS011;2539;52.568;13.364;2022-12-07T09:22:30;6.70;;;3.07;;
5040;SDS011;2539;52.568;13.364;2022-12-07T09:24:57;3.20;;;2.90;;
5040;SDS011;2539;52.568;13.364;2022-12-07T09:27:24;3.27;;;2.40;;
5040;SDS011;2539;52.568;13.364;2022-12-07T09:29:51;3.30;;;3.00;;
5040;SDS011;2539;52.568;13.364;2022-12-07T09:32:17;5.97;;;3.40;;
5040;SDS011;2539;52.568;13.364;2022-12-07T09:34:44;4.00;;;2.50;;
5040;SDS011;2539;52.568;13.364;2022-12-07T09:37:11;3.10;;;2.50;;
5040;SDS011;2539;52.568;13.364;2022-12-07T09:39:37;2.23;;;2.03;;
5040;SDS011;2539;52.568;13.364;2022-12-07T09:42:04;7.80;;;2.47;;
5040;SDS011;2539;52.568;13.364;2022-12-07T09:44:31;3.83;;;3.37;;
5040;SDS011;2539;52.568;13.364;2022-12-07T09:46:59;6.63;;;2.97;;
5040;SDS011;2539;52.568;13.364;2022-12-07T09:49:27;7.80;;;2.03;;
5040;SDS011;2539;52.568;13.364;2022-12-07T09:54:35;3.60;;;2.70;;
5040;SDS011;2539;52.568;13.364;2022-12-07T09:57:05;4.13;;;3.40;;
5040;SDS011;2539;52.568;13.364;2022-12-07T09:59:31;4.67;;;3.40;;
5040;SDS011;2539;52.568;13.364;2022-12-07T10:02:04;4.57;;;2.80;;
5040;SDS011;2539;52.568;13.364;2022-12-07T10:04:53;2.83;;;2.43;;
5040;SDS011;2539;52.568;13.364;2022-12-07T10:07:20;2.97;;;2.43;;
5040;SDS011;2539;52.568;13.364;2022-12-07T10:09:46;4.23;;;2.63;;
5040;SDS011;2539;52.568;13.364;2022-12-07T10:12:12;3.20;;;2.00;;
5040;SDS011;2539;52.568;13.364;2022-12-07T10:14:40;3.20;;;2.90;;
5040;SDS011;2539;52.568;13.364;2022-12-07T10:17:33;4.33;;;2.83;;
5040;SDS011;2539;52.568;13.364;2022-12-07T10:22:54;21.53;;;5.37;;
5040;SDS011;2539;52.568;13.364;2022-12-07T10:25:27;9.53;;;3.90;;
5040;SDS011;2539;52.568;13.364;2022-12-07T10:30:32;4.67;;;3.33;;
5040;SDS011;2539;52.568;13.364;2022-12-07T10:32:59;3.17;;;2.40;;
5040;SDS011;2539;52.568;13.364;2022-12-07T10:35:26;3.33;;;2.20;;
5040;SDS011;2539;52.568;13.364;2022-12-07T10:37:55;6.53;;;3.10;;
5040;SDS011;2539;52.568;13.364;2022-12-07T10:40:33;5.90;;;3.80;;
5040;SDS011;2539;52.568;13.364;2022-12-07T10:51:43;5.80;;;3.73;;
5040;SDS011;2539;52.568;13.364;2022-12-07T10:57:20;9.90;;;5.17;;
5040;SDS011;2539;52.568;13.364;2022-12-07T11:00:00;4.10;;;3.20;;
5040;SDS011;2539;52.568;13.364;2022-12-07T11:05:27;10.03;;;8.60;;
5040;SDS011;2539;52.568;13.364;2022-12-07T11:08:13;12.67;;;8.87;;
5040;SDS011;2539;52.568;13.364;2022-12-07T11:10:50;5.87;;;5.10;;
5040;SDS011;2539;52.568;13.364;2022-12-07T11:16:26;10.53;;;5.30;;
5040;SDS011;2539;52.568;13.364;2022-12-07T11:19:39;8.80;;;4.30;;
5040;SDS011;2539;52.568;13.364;2022-12-07T11:31:10;6.10;;;4.03;;
5040;SDS011;2539;52.568;13.364;2022-12-07T11:33:42;8.60;;;3.83;;
5040;SDS011;2539;52.568;13.364;2022-12-07T11:36:31;12.20;;;5.00;;
5040;SDS011;2539;52.568;13.364;2022-12-07T11:39:10;12.60;;;4.87;;
5040;SDS011;2539;52.568;13.364;2022-12-07T11:41:45;14.80;;;5.13;;
5040;SDS011;2539;52.568;13.364;2022-12-07T11:44:36;11.70;;;4.03;;
5040;SDS011;2539;52.568;13.364;2022-12-07T11:47:27;18.80;;;5.90;;
5040;SDS011;2539;52.568;13.364;2022-12-07T11:50:20;12.93;;;5.37;;
5040;SDS011;2539;52.568;13.364;2022-12-07T11:58:19;6.17;;;3.70;;
5040;SDS011;2539;52.568;13.364;2022-12-07T12:01:11;6.30;;;4.50;;
5040;SDS011;2539;52.568;13.364;2022-12-07T12:03:46;9.00;;;5.30;;
5040;SDS011;2539;52.568;13.364;2022-12-07T12:06:16;9.80;;;4.30;;
5040;SDS011;2539;52.568;13.364;2022-12-07T12:08:44;7.17;;;4.30;;
5040;SDS011;2539;52.568;13.364;2022-12-07T12:14:12;6.70;;;3.93;;
5040;SDS011;2539;52.568;13.364;2022-12-07T12:17:06;4.97;;;3.70;;
5040;SDS011;2539;52.568;13.364;2022-12-07T12:19:58;6.60;;;4.03;;
5040;SDS011;2539;52.568;13.364;2022-12-07T12:22:51;3.63;;;3.30;;
5040;SDS011;2539;52.568;13.364;2022-12-07T12:25:31;4.90;;;3.83;;
5040;SDS011;2539;52.568;13.364;2022-12-07T12:28:03;11.80;;;5.40;;
5040;SDS011;2539;52.568;13.364;2022-12-07T12:30:37;7.23;;;4.10;;
5040;SDS011;2539;52.568;13.364;2022-12-07T12:33:21;5.97;;;3.80;;
5040;SDS011;2539;52.568;13.364;2022-12-07T12:36:17;10.20;;;5.20;;
5040;SDS011;2539;52.568;13.364;2022-12-07T12:47:04;16.40;;;6.10;;
5040;SDS011;2539;52.568;13.364;2022-12-07T12:50:11;21.97;;;7.47;;
5040;SDS011;2539;52.568;13.364;2022-12-07T12:57:35;20.70;;;10.47;;
5040;SDS011;2539;52.568;13.364;2022-12-07T13:00:18;9.00;;;4.90;;
5040;SDS011;2539;52.568;13.364;2022-12-07T13:02:51;13.67;;;5.40;;
5040;SDS011;2539;52.568;13.364;2022-12-07T13:05:23;6.60;;;3.57;;
5040;SDS011;2539;52.568;13.364;2022-12-07T13:07:54;7.27;;;3.03;;
5040;SDS011;2539;52.568;13.364;2022-12-07T13:15:50;10.90;;;5.80;;
5040;SDS011;2539;52.568;13.364;2022-12-07T13:18:35;6.73;;;4.30;;
5040;SDS011;2539;52.568;13.364;2022-12-07T13:26:23;7.33;;;4.90;;
5040;SDS011;2539;52.568;13.364;2022-12-07T13:34:05;5.17;;;2.87;;
5040;SDS011;2539;52.568;13.364;2022-12-07T13:36:52;5.93;;;3.03;;
5040;SDS011;2539;52.568;13.364;2022-12-07T13:39:19;8.47;;;3.57;;
5040;SDS011;2539;52.568;13.364;2022-12-07T13:41:57;7.03;;;2.97;;
5040;SDS011;2539;52.568;13.364;2022-12-07T13:44:26;12.77;;;6.67;;
5040;SDS011;2539;52.568;13.364;2022-12-07T13:47:03;5.23;;;3.30;;
5040;SDS011;2539;52.568;13.364;2022-12-07T13:49:51;8.53;;;4.90;;
5040;SDS011;2539;52.568;13.364;2022-12-07T13:52:21;10.57;;;4.13;;
5040;SDS011;2539;52.568;13.364;2022-12-07T13:55:08;18.70;;;5.40;;
5040;SDS011;2539;52.568;13.364;2022-12-07T13:57:40;24.37;;;4.83;;
5040;SDS011;2539;52.568;13.364;2022-12-07T14:00:14;18.20;;;4.73;;
5040;SDS011;2539;52.568;13.364;2022-12-07T14:02:57;6.93;;;2.83;;
5040;SDS011;2539;52.568;13.364;2022-12-07T14:05:28;4.90;;;3.00;;
5040;SDS011;2539;52.568;13.364;2022-12-07T14:08:00;10.40;;;4.10;;
5040;SDS011;2539;52.568;13.364;2022-12-07T14:10:32;12.80;;;3.60;;
5040;SDS011;2539;52.568;13.364;2022-12-07T14:13:02;7.73;;;2.57;;
5040;SDS011;2539;52.568;13.364;2022-12-07T14:15:33;12.57;;;4.70;;
5040;SDS011;2539;52.568;13.364;2022-12-07T14:18:01;9.47;;;4.57;;
5040;SDS011;2539;52.568;13.364;2022-12-07T14:20:38;32.67;;;6.00;;
5040;SDS011;2539;52.568;13.364;2022-12-07T14:23:21;11.67;;;2.80;;
5040;SDS011;2539;52.568;13.364;2022-12-07T14:25:50;6.77;;;2.77;;
5040;SDS011;2539;52.568;13.364;2022-12-07T14:28:27;10.20;;;4.20;;
5040;SDS011;2539;52.568;13.364;2022-12-07T14:30:55;17.00;;;8.20;;
5040;SDS011;2539;52.568;13.364;2022-12-07T14:33:22;6.53;;;3.90;;
5040;SDS011;2539;52.568;13.364;2022-12-07T14:35:50;7.70;;;3.80;;
5040;SDS011;2539;52.568;13.364;2022-12-07T14:38:21;5.80;;;3.97;;
5040;SDS011;2539;52.568;13.364;2022-12-07T14:40:48;10.10;;;4.77;;
5040;SDS011;2539;52.568;13.364;2022-12-07T14:43:15;9.20;;;4.10;;
5040;SDS011;2539;52.568;13.364;2022-12-07T14:45:43;10.87;;;4.40;;
5040;SDS011;2539;52.568;13.364;2022-12-07T14:48:10;7.07;;;3.80;;
5040;SDS011;2539;52.568;13.364;2022-12-07T14:50:40;10.00;;;4.17;;
5040;SDS011;2539;52.568;13.364;2022-12-07T14:53:12;21.07;;;10.57;;
5040;SDS011;2539;52.568;13.364;2022-12-07T14:55:40;25.50;;;13.40;;
5040;SDS011;2539;52.568;13.364;2022-12-07T14:58:13;55.93;;;24.47;;
5040;SDS011;2539;52.568;13.364;2022-12-07T15:00:41;6.20;;;5.60;;
5040;SDS011;2539;52.568;13.364;2022-12-07T15:03:08;11.67;;;6.80;;
5040;SDS011;2539;52.568;13.364;2022-12-07T15:05:34;5.73;;;4.87;;
5040;SDS011;2539;52.568;13.364;2022-12-07T15:08:01;8.00;;;3.70;;
5040;SDS011;2539;52.568;13.364;2022-12-07T15:10:32;6.10;;;3.83;;
5040;SDS011;2539;52.568;13.364;2022-12-07T15:12:59;8.53;;;3.80;;
5040;SDS011;2539;52.568;13.364;2022-12-07T15:15:49;7.53;;;3.80;;
5040;SDS011;2539;52.568;13.364;2022-12-07T15:18:16;5.40;;;3.00;;
5040;SDS011;2539;52.568;13.364;2022-12-07T15:20:44;6.93;;;3.23;;
5040;SDS011;2539;52.568;13.364;2022-12-07T15:23:11;6.37;;;3.10;;
5040;SDS011;2539;52.568;13.364;2022-12-07T15:25:40;6.23;;;3.30;;
5040;SDS011;2539;52.568;13.364;2022-12-07T15:28:10;10.23;;;5.07;;
5040;SDS011;2539;52.568;13.364;2022-12-07T15:30:38;10.07;;;5.80;;
5040;SDS011;2539;52.568;13.364;2022-12-07T15:33:07;16.27;;;8.57;;
5040;SDS011;2539;52.568;13.364;2022-12-07T15:35:33;62.67;;;26.33;;
5040;SDS011;2539;52.568;13.364;2022-12-07T15:38:03;14.73;;;6.77;;
5040;SDS011;2539;52.568;13.364;2022-12-07T15:40:30;50.60;;;23.00;;
5040;SDS011;2539;52.568;13.364;2022-12-07T15:42:57;11.20;;;6.80;;
5040;SDS011;2539;52.568;13.364;2022-12-07T15:45:23;12.23;;;5.80;;
5040;SDS011;2539;52.568;13.364;2022-12-07T15:47:49;13.13;;;5.33;;
5040;SDS011;2539;52.568;13.364;2022-12-07T15:50:16;5.63;;;4.03;;
5040;SDS011;2539;52.568;13.364;2022-12-07T15:52:43;9.30;;;4.53;;
5040;SDS011;2539;52.568;13.364;2022-12-07T15:55:09;7.67;;;4.27;;
5040;SDS011;2539;52.568;13.364;2022-12-07T15:57:36;10.47;;;5.30;;
5040;SDS011;2539;52.568;13.364;2022-12-07T16:00:04;7.03;;;2.93;;
5040;SDS011;2539;52.568;13.364;2022-12-07T16:02:32;5.10;;;3.83;;
5040;SDS011;2539;52.568;13.364;2022-12-07T16:04:58;7.53;;;4.50;;
5040;SDS011;2539;52.568;13.364;2022-12-07T16:07:25;7.93;;;4.17;;
5040;SDS011;2539;52.568;13.364;2022-12-07T16:12:34;18.20;;;9.87;;
5040;SDS011;2539;52.568;13.364;2022-12-07T16:15:00;24.40;;;12.37;;
5040;SDS011;2539;52.568;13.364;2022-12-07T16:17:26;12.60;;;6.30;;
5040;SDS011;2539;52.568;13.364;2022-12-07T16:19:51;26.23;;;14.60;;
5040;SDS011;2539;52.568;13.364;2022-12-07T16:22:18;29.13;;;15.50;;
5040;SDS011;2539;52.568;13.364;2022-12-07T16:24:44;21.77;;;10.13;;
5040;SDS011;2539;52.568;13.364;2022-12-07T16:27:10;12.03;;;5.03;;
5040;SDS011;2539;52.568;13.364;2022-12-07T16:29:36;8.00;;;4.60;;
5040;SDS011;2539;52.568;13.364;2022-12-07T16:32:03;13.50;;;4.97;;
5040;SDS011;2539;52.568;13.364;2022-12-07T16:34:30;15.97;;;9.80;;
5040;SDS011;2539;52.568;13.364;2022-12-07T16:36:56;7.23;;;3.90;;
5040;SDS011;2539;52.568;13.364;2022-12-07T16:39:23;5.57;;;3.17;;
5040;SDS011;2539;52.568;13.364;2022-12-07T16:41:50;7.30;;;2.33;;
5040;SDS011;2539;52.568;13.364;2022-12-07T16:44:16;6.87;;;3.80;;
5040;SDS011;2539;52.568;13.364;2022-12-07T16:46:43;9.10;;;3.90;;
5040;SDS011;2539;52.568;13.364;2022-12-07T16:49:11;3.97;;;3.03;;